sensor_id;sensor_type;location;lat;lon;timestamp;P1;durP1;ratioP1;P2;durP2;ratioP2
33738;SDS011;20063;51.730;11.110;2023-03-01T00:01:13;17.08;;;9.98;;
33738;SDS011;20063;51.730;11.110;2023-03-01T00:03:46;18.10;;;9.95;;
33738;SDS011;20063;51.730;11.110;2023-03-01T00:06:12;16.05;;;9.77;;
33738;SDS011;20063;51.730;11.110;2023-03-01T00:08:38;20.33;;;10.30;;
33738;SDS011;20063;51.730;11.110;2023-03-01T00:13:44;20.20;;;10.63;;
33738;SDS011;20063;51.730;11.110;2023-03-01T00:16:13;15.48;;;9.57;;
33738;SDS011;20063;51.730;11.110;2023-03-01T00:18:43;23.05;;;11.05;;
33738;SDS011;20063;51.730;11.110;2023-03-01T00:21:09;21.08;;;11.07;;
33738;SDS011;20063;51.730;11.110;2023-03-01T00:23:35;21.05;;;11.43;;
33738;SDS011;20063;51.730;11.110;2023-03-01T00:26:01;24.73;;;11.20;;
33738;SDS011;20063;51.730;11.110;2023-03-01T00:28:27;18.05;;;10.43;;
33738;SDS011;20063;51.730;11.110;2023-03-01T00:30:53;17.40;;;8.75;;
33738;SDS011;20063;51.730;11.110;2023-03-01T00:33:18;16.60;;;8.82;;
33738;SDS011;20063;51.730;11.110;2023-03-01T00:35:44;14.98;;;9.70;;
33738;SDS011;20063;51.730;11.110;2023-03-01T00:38:10;20.35;;;10.25;;
33738;SDS011;20063;51.730;11.110;2023-03-01T00:40:36;20.70;;;10.10;;
33738;SDS011;20063;51.730;11.110;2023-03-01T00:43:02;15.68;;;9.82;;
33738;SDS011;20063;51.730;11.110;2023-03-01T00:45:28;17.75;;;9.45;;
33738;SDS011;20063;51.730;11.110;2023-03-01T00:47:56;18.60;;;9.23;;
33738;SDS011;20063;51.730;11.110;2023-03-01T00:50:23;18.17;;;10.38;;
33738;SDS011;20063;51.730;11.110;2023-03-01T00:52:53;16.50;;;10.07;;
33738;SDS011;20063;51.730;11.110;2023-03-01T00:55:19;20.23;;;10.15;;
33738;SDS011;20063;51.730;11.110;2023-03-01T00:57:45;17.15;;;9.10;;
33738;SDS011;20063;51.730;11.110;2023-03-01T01:00:11;18.58;;;10.55;;
33738;SDS011;20063;51.730;11.110;2023-03-01T01:02:37;13.00;;;8.77;;
33738;SDS011;20063;51.730;11.110;2023-03-01T01:05:03;17.30;;;9.60;;
33738;SDS011;20063;51.730;11.110;2023-03-01T01:07:29;17.20;;;9.32;;
33738;SDS011;20063;51.730;11.110;2023-03-01T01:09:55;16.45;;;9.13;;
33738;SDS011;20063;51.730;11.110;2023-03-01T01:12:21;16.33;;;8.68;;
33738;SDS011;20063;51.730;11.110;2023-03-01T01:14:46;15.27;;;9.15;;
33738;SDS011;20063;51.730;11.110;2023-03-01T01:17:12;18.88;;;10.02;;
33738;SDS011;20063;51.730;11.110;2023-03-01T01:19:37;12.95;;;8.35;;
33738;SDS011;20063;51.730;11.110;2023-03-01T01:22:03;12.45;;;8.13;;
33738;SDS011;20063;51.730;11.110;2023-03-01T01:24:29;16.85;;;8.93;;
33738;SDS011;20063;51.730;11.110;2023-03-01T01:26:55;16.67;;;9.07;;
33738;SDS011;20063;51.730;11.110;2023-03-01T01:29:20;20.30;;;9.68;;
33738;SDS011;20063;51.730;11.110;2023-03-01T01:31:46;18.15;;;9.50;;
33738;SDS011;20063;51.730;11.110;2023-03-01T01:34:19;16.80;;;8.27;;
33738;SDS011;20063;51.730;11.110;2023-03-01T01:36:49;14.45;;;8.35;;
33738;SDS011;20063;51.730;11.110;2023-03-01T01:39:19;13.18;;;8.30;;
33738;SDS011;20063;51.730;11.110;2023-03-01T01:41:45;12.80;;;7.88;;
33738;SDS011;20063;51.730;11.110;2023-03-01T01:49:31;16.20;;;8.60;;
33738;SDS011;20063;51.730;11.110;2023-03-01T01:52:10;15.80;;;9.25;;
33738;SDS011;20063;51.730;11.110;2023-03-01T01:54:59;16.92;;;9.60;;
33738;SDS011;20063;51.730;11.110;2023-03-01T01:57:33;15.60;;;9.07;;
33738;SDS011;20063;51.730;11.110;2023-03-01T02:00:15;16.02;;;8.52;;
33738;SDS011;20063;51.730;11.110;2023-03-01T02:02:50;15.32;;;9.30;;
33738;SDS011;20063;51.730;11.110;2023-03-01T02:05:24;14.18;;;8.02;;
33738;SDS011;20063;51.730;11.110;2023-03-01T02:08:13;18.00;;;8.38;;
33738;SDS011;20063;51.730;11.110;2023-03-01T02:10:41;18.85;;;9.15;;
33738;SDS011;20063;51.730;11.110;2023-03-01T02:13:07;15.18;;;8.88;;
33738;SDS011;20063;51.730;11.110;2023-03-01T02:15:34;16.42;;;8.50;;
33738;SDS011;20063;51.730;11.110;2023-03-01T02:18:01;14.30;;;8.75;;
33738;SDS011;20063;51.730;11.110;2023-03-01T02:20:36;15.23;;;9.35;;
33738;SDS011;20063;51.730;11.110;2023-03-01T02:23:26;12.90;;;8.02;;
33738;SDS011;20063;51.730;11.110;2023-03-01T02:25:57;12.90;;;8.70;;
33738;SDS011;20063;51.730;11.110;2023-03-01T02:28:32;20.20;;;8.43;;
33738;SDS011;20063;51.730;11.110;2023-03-01T02:31:03;15.93;;;8.77;;
33738;SDS011;20063;51.730;11.110;2023-03-01T02:33:49;19.50;;;9.25;;
33738;SDS011;20063;51.730;11.110;2023-03-01T02:36:17;11.88;;;8.05;;
33738;SDS011;20063;51.730;11.110;2023-03-01T02:38:45;13.70;;;8.48;;
33738;SDS011;20063;51.730;11.110;2023-03-01T02:41:13;12.52;;;7.32;;
33738;SDS011;20063;51.730;11.110;2023-03-01T02:43:41;19.20;;;8.80;;
33738;SDS011;20063;51.730;11.110;2023-03-01T02:46:08;15.05;;;8.70;;
33738;SDS011;20063;51.730;11.110;2023-03-01T02:48:47;14.27;;;9.20;;
33738;SDS011;20063;51.730;11.110;2023-03-01T02:54:24;20.45;;;9.65;;
33738;SDS011;20063;51.730;11.110;2023-03-01T02:56:53;18.73;;;10.02;;
33738;SDS011;20063;51.730;11.110;2023-03-01T02:59:24;21.40;;;10.27;;
33738;SDS011;20063;51.730;11.110;2023-03-01T03:01:54;23.00;;;9.77;;
33738;SDS011;20063;51.730;11.110;2023-03-01T03:04:19;22.20;;;10.95;;
33738;SDS011;20063;51.730;11.110;2023-03-01T03:06:46;25.30;;;11.23;;
33738;SDS011;20063;51.730;11.110;2023-03-01T03:09:13;19.95;;;10.73;;
33738;SDS011;20063;51.730;11.110;2023-03-01T03:11:40;18.08;;;10.07;;
33738;SDS011;20063;51.730;11.110;2023-03-01T03:14:06;20.35;;;10.70;;
33738;SDS011;20063;51.730;11.110;2023-03-01T03:16:38;14.75;;;9.30;;
33738;SDS011;20063;51.730;11.110;2023-03-01T03:19:08;18.35;;;9.27;;
33738;SDS011;20063;51.730;11.110;2023-03-01T03:21:34;19.77;;;9.52;;
33738;SDS011;20063;51.730;11.110;2023-03-01T03:24:00;13.98;;;8.10;;
33738;SDS011;20063;51.730;11.110;2023-03-01T03:26:26;13.88;;;8.80;;
33738;SDS011;20063;51.730;11.110;2023-03-01T03:28:52;21.08;;;8.88;;
33738;SDS011;20063;51.730;11.110;2023-03-01T03:31:17;13.68;;;8.43;;
33738;SDS011;20063;51.730;11.110;2023-03-01T03:33:43;14.77;;;7.28;;
33738;SDS011;20063;51.730;11.110;2023-03-01T03:36:09;19.75;;;8.27;;
33738;SDS011;20063;51.730;11.110;2023-03-01T03:38:39;13.88;;;8.50;;
33738;SDS011;20063;51.730;11.110;2023-03-01T03:41:06;12.27;;;7.65;;
33738;SDS011;20063;51.730;11.110;2023-03-01T03:43:33;20.02;;;8.95;;
33738;SDS011;20063;51.730;11.110;2023-03-01T03:46:01;15.68;;;8.00;;
33738;SDS011;20063;51.730;11.110;2023-03-01T03:48:30;14.52;;;7.90;;
33738;SDS011;20063;51.730;11.110;2023-03-01T03:51:01;8.88;;;6.68;;
33738;SDS011;20063;51.730;11.110;2023-03-01T03:53:30;12.98;;;7.85;;
33738;SDS011;20063;51.730;11.110;2023-03-01T03:55:56;14.27;;;7.22;;
33738;SDS011;20063;51.730;11.110;2023-03-01T03:58:23;10.57;;;7.57;;
33738;SDS011;20063;51.730;11.110;2023-03-01T04:00:51;12.85;;;7.10;;
33738;SDS011;20063;51.730;11.110;2023-03-01T04:03:21;18.40;;;9.13;;
33738;SDS011;20063;51.730;11.110;2023-03-01T04:05:48;14.25;;;7.50;;
33738;SDS011;20063;51.730;11.110;2023-03-01T04:08:15;13.32;;;8.45;;
33738;SDS011;20063;51.730;11.110;2023-03-01T04:10:45;19.10;;;9.48;;
33738;SDS011;20063;51.730;11.110;2023-03-01T04:13:13;14.23;;;8.90;;
33738;SDS011;20063;51.730;11.110;2023-03-01T04:15:40;14.57;;;8.48;;
33738;SDS011;20063;51.730;11.110;2023-03-01T04:18:08;17.05;;;8.23;;
33738;SDS011;20063;51.730;11.110;2023-03-01T04:20:36;15.45;;;8.35;;
33738;SDS011;20063;51.730;11.110;2023-03-01T04:23:06;15.68;;;8.93;;
33738;SDS011;20063;51.730;11.110;2023-03-01T04:25:38;11.63;;;8.23;;
33738;SDS011;20063;51.730;11.110;2023-03-01T04:28:05;17.98;;;8.95;;
33738;SDS011;20063;51.730;11.110;2023-03-01T04:30:31;12.50;;;9.02;;
33738;SDS011;20063;51.730;11.110;2023-03-01T04:33:00;27.88;;;13.85;;
33738;SDS011;20063;51.730;11.110;2023-03-01T04:35:27;19.40;;;11.20;;
33738;SDS011;20063;51.730;11.110;2023-03-01T04:37:53;19.55;;;11.20;;
33738;SDS011;20063;51.730;11.110;2023-03-01T04:40:18;15.85;;;10.40;;
33738;SDS011;20063;51.730;11.110;2023-03-01T04:42:44;22.27;;;11.00;;
33738;SDS011;20063;51.730;11.110;2023-03-01T04:45:12;14.02;;;8.57;;
33738;SDS011;20063;51.730;11.110;2023-03-01T04:47:41;19.33;;;10.07;;
33738;SDS011;20063;51.730;11.110;2023-03-01T04:50:19;15.48;;;9.88;;
33738;SDS011;20063;51.730;11.110;2023-03-01T04:52:46;17.20;;;9.77;;
33738;SDS011;20063;51.730;11.110;2023-03-01T04:55:12;18.15;;;11.10;;
33738;SDS011;20063;51.730;11.110;2023-03-01T04:57:38;17.65;;;10.43;;
33738;SDS011;20063;51.730;11.110;2023-03-01T05:00:06;17.75;;;10.27;;
33738;SDS011;20063;51.730;11.110;2023-03-01T05:02:52;19.52;;;10.82;;
33738;SDS011;20063;51.730;11.110;2023-03-01T05:05:23;18.55;;;10.13;;
33738;SDS011;20063;51.730;11.110;2023-03-01T05:07:59;20.83;;;11.18;;
33738;SDS011;20063;51.730;11.110;2023-03-01T05:10:27;22.02;;;11.07;;
33738;SDS011;20063;51.730;11.110;2023-03-01T05:12:54;17.90;;;10.95;;
33738;SDS011;20063;51.730;11.110;2023-03-01T05:15:22;20.98;;;11.57;;
33738;SDS011;20063;51.730;11.110;2023-03-01T05:17:50;20.70;;;11.32;;
33738;SDS011;20063;51.730;11.110;2023-03-01T05:20:17;23.92;;;12.05;;
33738;SDS011;20063;51.730;11.110;2023-03-01T05:22:43;18.13;;;10.23;;
33738;SDS011;20063;51.730;11.110;2023-03-01T05:25:08;18.33;;;10.98;;
33738;SDS011;20063;51.730;11.110;2023-03-01T05:27:36;18.95;;;9.80;;
33738;SDS011;20063;51.730;11.110;2023-03-01T05:30:02;14.82;;;9.07;;
33738;SDS011;20063;51.730;11.110;2023-03-01T05:32:38;16.63;;;9.90;;
33738;SDS011;20063;51.730;11.110;2023-03-01T05:35:08;17.45;;;9.82;;
33738;SDS011;20063;51.730;11.110;2023-03-01T05:37:38;18.85;;;10.52;;
33738;SDS011;20063;51.730;11.110;2023-03-01T05:40:11;16.67;;;9.77;;
33738;SDS011;20063;51.730;11.110;2023-03-01T05:42:48;19.23;;;10.55;;
33738;SDS011;20063;51.730;11.110;2023-03-01T05:45:15;18.00;;;10.43;;
33738;SDS011;20063;51.730;11.110;2023-03-01T05:47:42;20.00;;;11.27;;
33738;SDS011;20063;51.730;11.110;2023-03-01T05:50:19;22.42;;;11.25;;
33738;SDS011;20063;51.730;11.110;2023-03-01T05:52:56;21.50;;;11.65;;
33738;SDS011;20063;51.730;11.110;2023-03-01T05:55:22;18.48;;;10.23;;
33738;SDS011;20063;51.730;11.110;2023-03-01T05:57:48;19.83;;;10.63;;
33738;SDS011;20063;51.730;11.110;2023-03-01T06:00:15;15.52;;;10.50;;
33738;SDS011;20063;51.730;11.110;2023-03-01T06:02:42;15.88;;;9.52;;
33738;SDS011;20063;51.730;11.110;2023-03-01T06:05:08;22.92;;;10.88;;
33738;SDS011;20063;51.730;11.110;2023-03-01T06:07:35;20.00;;;11.63;;
33738;SDS011;20063;51.730;11.110;2023-03-01T06:10:02;17.45;;;10.05;;
33738;SDS011;20063;51.730;11.110;2023-03-01T06:12:32;21.73;;;11.82;;
33738;SDS011;20063;51.730;11.110;2023-03-01T06:14:59;16.23;;;10.07;;
33738;SDS011;20063;51.730;11.110;2023-03-01T06:17:25;20.95;;;12.35;;
33738;SDS011;20063;51.730;11.110;2023-03-01T06:19:53;18.73;;;11.50;;
33738;SDS011;20063;51.730;11.110;2023-03-01T06:22:19;18.92;;;11.20;;
33738;SDS011;20063;51.730;11.110;2023-03-01T06:24:44;18.67;;;10.80;;
33738;SDS011;20063;51.730;11.110;2023-03-01T06:27:10;31.13;;;13.98;;
33738;SDS011;20063;51.730;11.110;2023-03-01T06:29:35;31.55;;;13.85;;
33738;SDS011;20063;51.730;11.110;2023-03-01T06:32:02;21.95;;;12.13;;
33738;SDS011;20063;51.730;11.110;2023-03-01T06:34:28;26.00;;;12.88;;
33738;SDS011;20063;51.730;11.110;2023-03-01T06:36:53;29.67;;;12.70;;
33738;SDS011;20063;51.730;11.110;2023-03-01T06:39:19;25.75;;;13.20;;
33738;SDS011;20063;51.730;11.110;2023-03-01T06:41:45;22.65;;;12.60;;
33738;SDS011;20063;51.730;11.110;2023-03-01T06:44:10;26.75;;;14.13;;
33738;SDS011;20063;51.730;11.110;2023-03-01T06:46:36;32.28;;;12.82;;
33738;SDS011;20063;51.730;11.110;2023-03-01T06:49:02;25.55;;;12.55;;
33738;SDS011;20063;51.730;11.110;2023-03-01T06:51:32;33.72;;;13.15;;
33738;SDS011;20063;51.730;11.110;2023-03-01T06:53:58;24.85;;;12.88;;
33738;SDS011;20063;51.730;11.110;2023-03-01T06:56:23;20.73;;;12.15;;
33738;SDS011;20063;51.730;11.110;2023-03-01T06:58:49;24.80;;;12.93;;
33738;SDS011;20063;51.730;11.110;2023-03-01T07:01:14;31.00;;;13.80;;
33738;SDS011;20063;51.730;11.110;2023-03-01T07:03:40;22.65;;;14.18;;
33738;SDS011;20063;51.730;11.110;2023-03-01T07:06:06;25.77;;;13.65;;
33738;SDS011;20063;51.730;11.110;2023-03-01T07:08:31;25.85;;;13.30;;
33738;SDS011;20063;51.730;11.110;2023-03-01T07:10:57;29.15;;;14.30;;
33738;SDS011;20063;51.730;11.110;2023-03-01T07:13:23;23.83;;;13.30;;
33738;SDS011;20063;51.730;11.110;2023-03-01T07:15:49;22.48;;;12.73;;
33738;SDS011;20063;51.730;11.110;2023-03-01T07:18:15;22.23;;;12.32;;
33738;SDS011;20063;51.730;11.110;2023-03-01T07:20:40;19.80;;;12.20;;
33738;SDS011;20063;51.730;11.110;2023-03-01T07:23:06;20.50;;;11.60;;
33738;SDS011;20063;51.730;11.110;2023-03-01T07:25:32;29.35;;;14.02;;
33738;SDS011;20063;51.730;11.110;2023-03-01T07:27:58;20.77;;;12.23;;
33738;SDS011;20063;51.730;11.110;2023-03-01T07:30:24;30.38;;;13.25;;
33738;SDS011;20063;51.730;11.110;2023-03-01T07:32:53;23.80;;;13.13;;
33738;SDS011;20063;51.730;11.110;2023-03-01T07:35:20;23.90;;;14.93;;
33738;SDS011;20063;51.730;11.110;2023-03-01T07:37:47;26.25;;;15.45;;
33738;SDS011;20063;51.730;11.110;2023-03-01T07:40:13;31.15;;;17.50;;
33738;SDS011;20063;51.730;11.110;2023-03-01T07:42:38;24.77;;;14.07;;
33738;SDS011;20063;51.730;11.110;2023-03-01T07:45:04;28.13;;;14.98;;
33738;SDS011;20063;51.730;11.110;2023-03-01T07:47:31;24.65;;;15.45;;
33738;SDS011;20063;51.730;11.110;2023-03-01T07:49:57;30.48;;;15.73;;
33738;SDS011;20063;51.730;11.110;2023-03-01T07:52:23;29.58;;;16.65;;
33738;SDS011;20063;51.730;11.110;2023-03-01T07:54:48;30.48;;;15.80;;
33738;SDS011;20063;51.730;11.110;2023-03-01T07:57:14;29.63;;;14.50;;
33738;SDS011;20063;51.730;11.110;2023-03-01T07:59:42;26.40;;;14.93;;
33738;SDS011;20063;51.730;11.110;2023-03-01T08:02:08;29.15;;;15.18;;
33738;SDS011;20063;51.730;11.110;2023-03-01T08:04:34;24.95;;;14.18;;
33738;SDS011;20063;51.730;11.110;2023-03-01T08:07:00;30.17;;;16.10;;
33738;SDS011;20063;51.730;11.110;2023-03-01T08:09:25;28.75;;;15.75;;
33738;SDS011;20063;51.730;11.110;2023-03-01T08:11:51;28.10;;;15.85;;
33738;SDS011;20063;51.730;11.110;2023-03-01T08:14:17;24.50;;;14.55;;
33738;SDS011;20063;51.730;11.110;2023-03-01T08:16:42;28.67;;;14.35;;
33738;SDS011;20063;51.730;11.110;2023-03-01T08:19:09;23.45;;;13.18;;
33738;SDS011;20063;51.730;11.110;2023-03-01T08:21:36;19.63;;;12.55;;
33738;SDS011;20063;51.730;11.110;2023-03-01T08:24:03;30.10;;;15.45;;
33738;SDS011;20063;51.730;11.110;2023-03-01T08:26:31;25.88;;;14.57;;
33738;SDS011;20063;51.730;11.110;2023-03-01T08:28:57;25.85;;;13.63;;
33738;SDS011;20063;51.730;11.110;2023-03-01T08:31:25;26.25;;;14.52;;
33738;SDS011;20063;51.730;11.110;2023-03-01T08:33:57;28.58;;;14.60;;
33738;SDS011;20063;51.730;11.110;2023-03-01T08:36:25;27.25;;;15.32;;
33738;SDS011;20063;51.730;11.110;2023-03-01T08:38:52;28.45;;;15.13;;
33738;SDS011;20063;51.730;11.110;2023-03-01T08:41:18;26.35;;;14.80;;
33738;SDS011;20063;51.730;11.110;2023-03-01T08:43:44;28.38;;;14.35;;
33738;SDS011;20063;51.730;11.110;2023-03-01T08:46:11;24.10;;;13.63;;
33738;SDS011;20063;51.730;11.110;2023-03-01T08:48:37;28.77;;;14.45;;
33738;SDS011;20063;51.730;11.110;2023-03-01T08:53:34;24.77;;;13.82;;
33738;SDS011;20063;51.730;11.110;2023-03-01T08:56:00;31.80;;;14.52;;
33738;SDS011;20063;51.730;11.110;2023-03-01T08:58:29;28.17;;;14.00;;
33738;SDS011;20063;51.730;11.110;2023-03-01T09:00:55;26.02;;;13.82;;
33738;SDS011;20063;51.730;11.110;2023-03-01T09:03:24;26.42;;;13.55;;
33738;SDS011;20063;51.730;11.110;2023-03-01T09:05:50;24.35;;;13.45;;
33738;SDS011;20063;51.730;11.110;2023-03-01T09:08:17;24.98;;;13.05;;
33738;SDS011;20063;51.730;11.110;2023-03-01T09:10:43;23.67;;;12.27;;
33738;SDS011;20063;51.730;11.110;2023-03-01T09:13:09;25.63;;;14.50;;
33738;SDS011;20063;51.730;11.110;2023-03-01T09:15:36;31.20;;;14.90;;
33738;SDS011;20063;51.730;11.110;2023-03-01T09:18:02;29.75;;;13.90;;
33738;SDS011;20063;51.730;11.110;2023-03-01T09:20:28;29.48;;;14.90;;
33738;SDS011;20063;51.730;11.110;2023-03-01T09:22:56;29.17;;;15.70;;
33738;SDS011;20063;51.730;11.110;2023-03-01T09:25:21;42.00;;;21.05;;
33738;SDS011;20063;51.730;11.110;2023-03-01T09:27:47;37.40;;;19.55;;
33738;SDS011;20063;51.730;11.110;2023-03-01T09:30:16;31.40;;;16.77;;
33738;SDS011;20063;51.730;11.110;2023-03-01T09:32:42;38.75;;;16.92;;
33738;SDS011;20063;51.730;11.110;2023-03-01T09:35:09;30.90;;;16.05;;
33738;SDS011;20063;51.730;11.110;2023-03-01T09:37:36;29.75;;;16.13;;
33738;SDS011;20063;51.730;11.110;2023-03-01T09:40:03;24.15;;;13.40;;
33738;SDS011;20063;51.730;11.110;2023-03-01T09:42:31;21.05;;;13.75;;
33738;SDS011;20063;51.730;11.110;2023-03-01T09:45:45;23.83;;;13.40;;
33738;SDS011;20063;51.730;11.110;2023-03-01T09:48:04;23.08;;;12.88;;
33738;SDS011;20063;51.730;11.110;2023-03-01T09:50:35;26.63;;;14.23;;
33738;SDS011;20063;51.730;11.110;2023-03-01T09:53:09;23.42;;;13.90;;
33738;SDS011;20063;51.730;11.110;2023-03-01T10:01:38;26.08;;;14.15;;
33738;SDS011;20063;51.730;11.110;2023-03-01T10:09:51;26.25;;;12.50;;
33738;SDS011;20063;51.730;11.110;2023-03-01T10:12:18;29.77;;;14.07;;
33738;SDS011;20063;51.730;11.110;2023-03-01T10:14:53;29.00;;;14.70;;
33738;SDS011;20063;51.730;11.110;2023-03-01T10:20:20;23.52;;;11.60;;
33738;SDS011;20063;51.730;11.110;2023-03-01T10:22:48;31.23;;;11.30;;
33738;SDS011;20063;51.730;11.110;2023-03-01T10:28:06;22.95;;;12.13;;
33738;SDS011;20063;51.730;11.110;2023-03-01T10:30:47;28.33;;;14.50;;
33738;SDS011;20063;51.730;11.110;2023-03-01T10:35:50;25.98;;;12.75;;
33738;SDS011;20063;51.730;11.110;2023-03-01T10:38:16;25.05;;;13.00;;
33738;SDS011;20063;51.730;11.110;2023-03-01T10:43:30;20.35;;;12.25;;
33738;SDS011;20063;51.730;11.110;2023-03-01T10:51:46;30.23;;;13.77;;
33738;SDS011;20063;51.730;11.110;2023-03-01T10:54:28;27.15;;;12.18;;
33738;SDS011;20063;51.730;11.110;2023-03-01T10:56:56;19.83;;;10.98;;
33738;SDS011;20063;51.730;11.110;2023-03-01T11:02:01;22.42;;;11.25;;
33738;SDS011;20063;51.730;11.110;2023-03-01T11:04:29;23.83;;;11.93;;
33738;SDS011;20063;51.730;11.110;2023-03-01T11:06:59;23.25;;;11.68;;
33738;SDS011;20063;51.730;11.110;2023-03-01T11:09:25;25.88;;;13.77;;
33738;SDS011;20063;51.730;11.110;2023-03-01T11:11:57;26.08;;;12.88;;
33738;SDS011;20063;51.730;11.110;2023-03-01T11:14:33;27.63;;;12.48;;
33738;SDS011;20063;51.730;11.110;2023-03-01T11:17:10;29.77;;;12.73;;
33738;SDS011;20063;51.730;11.110;2023-03-01T11:19:37;27.50;;;12.23;;
33738;SDS011;20063;51.730;11.110;2023-03-01T11:22:07;24.15;;;12.00;;
33738;SDS011;20063;51.730;11.110;2023-03-01T11:24:52;27.00;;;12.10;;
33738;SDS011;20063;51.730;11.110;2023-03-01T11:27:24;31.92;;;11.32;;
33738;SDS011;20063;51.730;11.110;2023-03-01T11:30:12;27.13;;;11.77;;
33738;SDS011;20063;51.730;11.110;2023-03-01T11:32:50;27.80;;;11.73;;
33738;SDS011;20063;51.730;11.110;2023-03-01T11:35:20;22.08;;;10.88;;
33738;SDS011;20063;51.730;11.110;2023-03-01T11:40:45;22.45;;;11.30;;
33738;SDS011;20063;51.730;11.110;2023-03-01T11:49:40;23.92;;;10.27;;
33738;SDS011;20063;51.730;11.110;2023-03-01T12:06:00;17.65;;;10.38;;
33738;SDS011;20063;51.730;11.110;2023-03-01T12:11:39;19.90;;;9.98;;
33738;SDS011;20063;51.730;11.110;2023-03-01T12:17:00;21.25;;;10.02;;
33738;SDS011;20063;51.730;11.110;2023-03-01T12:22:59;19.52;;;11.02;;
33738;SDS011;20063;51.730;11.110;2023-03-01T12:31:01;18.58;;;9.32;;
33738;SDS011;20063;51.730;11.110;2023-03-01T12:52:46;18.98;;;9.50;;
33738;SDS011;20063;51.730;11.110;2023-03-01T13:00:53;17.42;;;8.25;;
33738;SDS011;20063;51.730;11.110;2023-03-01T13:03:48;16.90;;;8.23;;
33738;SDS011;20063;51.730;11.110;2023-03-01T13:11:50;16.40;;;8.43;;
33738;SDS011;20063;51.730;11.110;2023-03-01T13:16:48;21.73;;;9.50;;
33738;SDS011;20063;51.730;11.110;2023-03-01T13:19:16;17.50;;;8.77;;
33738;SDS011;20063;51.730;11.110;2023-03-01T13:21:45;17.33;;;9.43;;
33738;SDS011;20063;51.730;11.110;2023-03-01T13:29:31;20.70;;;9.10;;
33738;SDS011;20063;51.730;11.110;2023-03-01T13:32:22;15.85;;;7.57;;
33738;SDS011;20063;51.730;11.110;2023-03-01T13:37:23;15.88;;;6.70;;
33738;SDS011;20063;51.730;11.110;2023-03-01T13:40:00;14.73;;;7.40;;
33738;SDS011;20063;51.730;11.110;2023-03-01T13:42:31;22.63;;;8.32;;
33738;SDS011;20063;51.730;11.110;2023-03-01T13:45:02;13.43;;;7.50;;
33738;SDS011;20063;51.730;11.110;2023-03-01T13:47:29;15.73;;;8.50;;
33738;SDS011;20063;51.730;11.110;2023-03-01T13:49:59;20.15;;;8.43;;
33738;SDS011;20063;51.730;11.110;2023-03-01T13:55:06;15.82;;;7.72;;
33738;SDS011;20063;51.730;11.110;2023-03-01T13:57:48;16.58;;;8.60;;
33738;SDS011;20063;51.730;11.110;2023-03-01T14:00:25;18.55;;;7.43;;
33738;SDS011;20063;51.730;11.110;2023-03-01T14:05:39;15.55;;;7.57;;
33738;SDS011;20063;51.730;11.110;2023-03-01T14:08:17;20.75;;;9.02;;
33738;SDS011;20063;51.730;11.110;2023-03-01T14:11:32;19.75;;;7.95;;
33738;SDS011;20063;51.730;11.110;2023-03-01T14:19:18;20.15;;;9.88;;
33738;SDS011;20063;51.730;11.110;2023-03-01T14:21:58;16.75;;;8.38;;
33738;SDS011;20063;51.730;11.110;2023-03-01T14:24:27;19.52;;;8.40;;
33738;SDS011;20063;51.730;11.110;2023-03-01T14:26:52;15.00;;;8.05;;
33738;SDS011;20063;51.730;11.110;2023-03-01T14:29:32;16.70;;;8.35;;
33738;SDS011;20063;51.730;11.110;2023-03-01T14:32:17;25.75;;;10.10;;
33738;SDS011;20063;51.730;11.110;2023-03-01T14:34:49;22.30;;;11.18;;
33738;SDS011;20063;51.730;11.110;2023-03-01T14:39:52;21.08;;;9.43;;
33738;SDS011;20063;51.730;11.110;2023-03-01T14:42:19;13.80;;;7.88;;
33738;SDS011;20063;51.730;11.110;2023-03-01T14:44:47;27.75;;;12.50;;
33738;SDS011;20063;51.730;11.110;2023-03-01T14:47:21;11.50;;;7.05;;
33738;SDS011;20063;51.730;11.110;2023-03-01T14:49:49;16.95;;;7.43;;
33738;SDS011;20063;51.730;11.110;2023-03-01T14:52:21;14.25;;;7.47;;
33738;SDS011;20063;51.730;11.110;2023-03-01T14:54:51;15.43;;;7.38;;
33738;SDS011;20063;51.730;11.110;2023-03-01T14:57:19;16.05;;;7.45;;
33738;SDS011;20063;51.730;11.110;2023-03-01T14:59:51;25.15;;;14.07;;
33738;SDS011;20063;51.730;11.110;2023-03-01T15:02:20;16.85;;;7.20;;
33738;SDS011;20063;51.730;11.110;2023-03-01T15:04:49;14.27;;;6.95;;
33738;SDS011;20063;51.730;11.110;2023-03-01T15:07:30;15.02;;;7.85;;
33738;SDS011;20063;51.730;11.110;2023-03-01T15:09:59;12.05;;;6.53;;
33738;SDS011;20063;51.730;11.110;2023-03-01T15:14:52;26.00;;;13.20;;
33738;SDS011;20063;51.730;11.110;2023-03-01T15:17:34;20.98;;;10.02;;
33738;SDS011;20063;51.730;11.110;2023-03-01T15:20:04;21.55;;;8.60;;
33738;SDS011;20063;51.730;11.110;2023-03-01T15:22:32;16.98;;;7.68;;
33738;SDS011;20063;51.730;11.110;2023-03-01T15:25:02;14.63;;;6.93;;
33738;SDS011;20063;51.730;11.110;2023-03-01T15:27:28;11.70;;;6.68;;
33738;SDS011;20063;51.730;11.110;2023-03-01T15:30:00;13.13;;;6.65;;
33738;SDS011;20063;51.730;11.110;2023-03-01T15:32:29;14.55;;;7.07;;
33738;SDS011;20063;51.730;11.110;2023-03-01T15:34:55;10.90;;;5.88;;
33738;SDS011;20063;51.730;11.110;2023-03-01T15:37:44;11.15;;;6.63;;
33738;SDS011;20063;51.730;11.110;2023-03-01T15:40:22;11.85;;;6.70;;
33738;SDS011;20063;51.730;11.110;2023-03-01T15:42:56;13.27;;;6.57;;
33738;SDS011;20063;51.730;11.110;2023-03-01T15:45:28;9.75;;;6.30;;
33738;SDS011;20063;51.730;11.110;2023-03-01T15:47:56;15.65;;;6.88;;
33738;SDS011;20063;51.730;11.110;2023-03-01T15:50:27;11.85;;;6.45;;
33738;SDS011;20063;51.730;11.110;2023-03-01T15:53:03;11.90;;;6.43;;
33738;SDS011;20063;51.730;11.110;2023-03-01T15:55:32;11.93;;;6.65;;
33738;SDS011;20063;51.730;11.110;2023-03-01T15:57:59;14.30;;;6.88;;
33738;SDS011;20063;51.730;11.110;2023-03-01T16:00:27;11.98;;;6.35;;
33738;SDS011;20063;51.730;11.110;2023-03-01T16:02:54;11.73;;;6.45;;
33738;SDS011;20063;51.730;11.110;2023-03-01T16:07:50;12.60;;;6.30;;
33738;SDS011;20063;51.730;11.110;2023-03-01T16:10:16;11.80;;;6.85;;
33738;SDS011;20063;51.730;11.110;2023-03-01T16:12:42;12.63;;;6.85;;
33738;SDS011;20063;51.730;11.110;2023-03-01T16:15:13;14.43;;;6.93;;
33738;SDS011;20063;51.730;11.110;2023-03-01T16:17:42;13.88;;;7.30;;
33738;SDS011;20063;51.730;11.110;2023-03-01T16:20:08;14.68;;;7.13;;
33738;SDS011;20063;51.730;11.110;2023-03-01T16:22:34;13.20;;;7.57;;
33738;SDS011;20063;51.730;11.110;2023-03-01T16:24:59;17.95;;;8.48;;
33738;SDS011;20063;51.730;11.110;2023-03-01T16:27:25;12.50;;;7.15;;
33738;SDS011;20063;51.730;11.110;2023-03-01T16:29:50;12.65;;;6.63;;
33738;SDS011;20063;51.730;11.110;2023-03-01T16:32:16;12.20;;;7.47;;
33738;SDS011;20063;51.730;11.110;2023-03-01T16:34:41;17.55;;;8.73;;
33738;SDS011;20063;51.730;11.110;2023-03-01T16:37:07;12.73;;;7.55;;
33738;SDS011;20063;51.730;11.110;2023-03-01T16:39:33;15.20;;;7.75;;
33738;SDS011;20063;51.730;11.110;2023-03-01T16:41:59;15.82;;;8.27;;
33738;SDS011;20063;51.730;11.110;2023-03-01T16:44:25;14.20;;;8.02;;
33738;SDS011;20063;51.730;11.110;2023-03-01T16:46:51;17.02;;;8.70;;
33738;SDS011;20063;51.730;11.110;2023-03-01T16:49:17;14.90;;;7.93;;